createdAt,value
2022-11-14T00:01:19.406Z,10.15
2022-11-14T00:04:05.468Z,10.35
2022-11-14T00:06:51.513Z,9.65
2022-11-14T00:09:40.613Z,11.48
2022-11-14T00:12:27.277Z,8.80
2022-11-14T00:15:14.183Z,9.73
2022-11-14T00:18:03.974Z,9.00
2022-11-14T00:20:51.962Z,9.88
2022-11-14T00:23:38.349Z,9.18
2022-11-14T00:26:24.630Z,9.18
2022-11-14T00:29:15.956Z,8.80
2022-11-14T00:32:02.712Z,8.50
2022-11-14T00:34:49.826Z,9.65
2022-11-14T00:37:36.139Z,7.90
2022-11-14T00:40:22.726Z,8.63
2022-11-14T00:43:08.991Z,7.80
2022-11-14T00:45:55.645Z,8.97
2022-11-14T00:48:42.403Z,9.68
2022-11-14T00:51:28.645Z,7.75
2022-11-14T00:54:15.076Z,10.35
2022-11-14T00:57:01.190Z,7.15
2022-11-14T00:59:47.366Z,7.57
2022-11-14T01:02:33.940Z,10.05
2022-11-14T01:05:20.218Z,9.02
2022-11-14T01:08:06.203Z,7.80
2022-11-14T01:10:52.684Z,7.93
2022-11-14T01:13:39.371Z,9.00
2022-11-14T01:16:30.349Z,9.05
2022-11-14T01:19:16.733Z,8.13
2022-11-14T01:22:06.403Z,7.60
2022-11-14T01:24:55.277Z,8.73
2022-11-14T01:27:41.646Z,7.45
2022-11-14T01:30:27.677Z,8.10
2022-11-14T01:33:14.221Z,9.07
2022-11-14T01:36:00.421Z,7.18
2022-11-14T01:38:51.595Z,9.63
2022-11-14T01:41:37.756Z,8.52
2022-11-14T01:44:43.024Z,11.48
2022-11-14T01:47:32.272Z,9.77
2022-11-14T01:50:19.209Z,9.02
2022-11-14T01:53:05.373Z,10.55
2022-11-14T01:55:53.881Z,8.23
2022-11-14T01:58:43.874Z,9.32
2022-11-14T02:01:34.330Z,10.63
2022-11-14T02:04:31.861Z,8.43
2022-11-14T02:07:19.209Z,7.78
2022-11-14T02:10:10.276Z,8.02
2022-11-14T02:12:56.800Z,10.23
2022-11-14T02:15:43.267Z,8.63
2022-11-14T02:18:29.731Z,8.93
2022-11-14T02:21:16.045Z,9.32
2022-11-14T02:24:02.686Z,8.68
2022-11-14T02:26:51.048Z,9.23
2022-11-14T02:29:37.349Z,10.30
2022-11-14T02:32:24.022Z,10.50
2022-11-14T02:35:11.660Z,10.20
2022-11-14T02:37:57.898Z,8.98
2022-11-14T02:40:43.914Z,8.98
2022-11-14T02:43:30.130Z,9.73
2022-11-14T02:46:16.218Z,11.18
2022-11-14T02:49:02.436Z,9.75
2022-11-14T02:51:48.769Z,9.70
2022-11-14T02:54:34.907Z,8.52
2022-11-14T02:57:21.185Z,9.13
2022-11-14T03:00:14.385Z,11.20
2022-11-14T03:03:01.153Z,10.32
2022-11-14T03:05:47.471Z,9.98
2022-11-14T03:08:34.119Z,8.82
2022-11-14T03:11:20.455Z,9.65
2022-11-14T03:14:06.881Z,11.50
2022-11-14T03:16:55.579Z,9.55
2022-11-14T03:19:42.276Z,10.20
2022-11-14T03:22:28.253Z,9.43
2022-11-14T03:25:14.682Z,8.30
2022-11-14T03:28:01.073Z,10.80
2022-11-14T03:30:47.303Z,12.55
2022-11-14T03:33:34.824Z,13.02
2022-11-14T03:36:21.588Z,12.00
2022-11-14T03:39:07.767Z,10.73
2022-11-14T03:41:54.336Z,9.65
2022-11-14T03:44:40.693Z,9.82
2022-11-14T03:47:27.901Z,10.65
2022-11-14T03:50:14.428Z,9.07
2022-11-14T03:53:01.386Z,9.40
2022-11-14T03:55:47.912Z,9.10
2022-11-14T03:58:34.548Z,7.40
2022-11-14T04:01:20.910Z,9.75
2022-11-14T04:04:07.438Z,8.88
2022-11-14T04:06:53.504Z,7.15
2022-11-14T04:09:40.255Z,7.30
2022-11-14T04:12:26.839Z,7.20
2022-11-14T04:15:12.963Z,6.38
2022-11-14T04:18:00.091Z,6.68
2022-11-14T04:20:46.437Z,5.90
2022-11-14T04:23:32.718Z,6.10
2022-11-14T04:26:18.987Z,8.73
2022-11-14T04:29:05.312Z,8.82
2022-11-14T04:31:51.811Z,8.93
2022-11-14T04:34:39.379Z,6.97
2022-11-14T04:37:25.739Z,6.93
2022-11-14T04:40:12.460Z,7.28
2022-11-14T04:42:58.777Z,5.93
2022-11-14T04:45:45.169Z,6.40
2022-11-14T04:48:31.617Z,5.68
2022-11-14T04:51:18.145Z,5.83
2022-11-14T04:54:07.157Z,6.78
2022-11-14T04:56:53.231Z,6.15
2022-11-14T04:59:39.776Z,5.75
2022-11-14T05:02:25.992Z,5.57
2022-11-14T05:05:12.180Z,6.88
2022-11-14T05:08:01.233Z,5.78
2022-11-14T05:10:47.543Z,5.38
2022-11-14T05:13:34.018Z,8.02
2022-11-14T05:16:20.557Z,6.78
2022-11-14T05:19:06.417Z,5.97
2022-11-14T05:21:53.948Z,7.32
2022-11-14T05:24:40.312Z,7.00
2022-11-14T05:27:26.384Z,6.65
2022-11-14T05:30:16.179Z,7.03
2022-11-14T05:33:02.726Z,8.90
2022-11-14T05:35:48.962Z,6.93
2022-11-14T05:38:35.696Z,7.80
2022-11-14T05:41:22.074Z,10.23
2022-11-14T05:44:13.657Z,9.63
2022-11-14T05:46:59.882Z,9.30
2022-11-14T05:49:49.056Z,8.23
2022-11-14T05:52:35.318Z,9.13
2022-11-14T05:55:24.938Z,10.45
2022-11-14T05:58:11.234Z,11.52
2022-11-14T06:01:09.690Z,13.02
2022-11-14T06:03:56.241Z,11.70
2022-11-14T06:06:42.391Z,10.07
2022-11-14T06:09:29.147Z,10.18
2022-11-14T06:12:15.401Z,10.57
2022-11-14T06:15:01.565Z,11.48
2022-11-14T06:17:48.093Z,11.82
2022-11-14T06:20:34.588Z,13.80
2022-11-14T06:23:24.749Z,16.60
2022-11-14T06:26:23.492Z,20.60
2022-11-14T06:29:10.682Z,18.88
2022-11-14T06:31:57.268Z,17.90
2022-11-14T06:34:43.267Z,14.60
2022-11-14T06:37:33.437Z,14.70
2022-11-14T06:40:20.223Z,16.25
2022-11-14T06:43:06.407Z,14.55
2022-11-14T06:45:55.229Z,15.77
2022-11-14T06:48:42.978Z,11.15
2022-11-14T06:51:29.112Z,10.05
2022-11-14T06:54:15.604Z,8.13
2022-11-14T06:57:01.836Z,11.77
2022-11-14T06:59:49.266Z,11.33
2022-11-14T07:02:35.893Z,7.88
2022-11-14T07:05:21.938Z,10.13
2022-11-14T07:08:08.110Z,10.10
2022-11-14T07:10:54.468Z,6.57
2022-11-14T07:13:40.594Z,5.50
2022-11-14T07:16:33.168Z,5.03
2022-11-14T07:19:19.179Z,5.25
2022-11-14T07:22:06.325Z,5.05
2022-11-14T07:24:52.747Z,8.45
2022-11-14T07:27:39.118Z,6.47
2022-11-14T07:30:27.183Z,10.95
2022-11-14T07:33:13.365Z,8.25
2022-11-14T07:35:59.932Z,9.30
2022-11-14T07:38:46.492Z,8.93
2022-11-14T07:41:32.878Z,8.40
2022-11-14T07:44:19.209Z,9.10
2022-11-14T07:47:05.917Z,10.90
2022-11-14T07:49:52.320Z,11.23
2022-11-14T07:52:38.453Z,12.40
2022-11-14T07:55:25.130Z,10.60
2022-11-14T07:58:12.160Z,7.18
2022-11-14T08:01:02.732Z,8.02
2022-11-14T08:03:49.345Z,8.88
2022-11-14T08:06:35.515Z,9.75
2022-11-14T08:09:23.410Z,8.65
2022-11-14T08:12:10.697Z,14.15
2022-11-14T08:14:56.861Z,13.05
2022-11-14T08:17:43.377Z,8.30
2022-11-14T08:20:30.557Z,10.77
2022-11-14T08:23:16.870Z,11.40
2022-11-14T08:26:03.341Z,11.93
2022-11-14T08:28:54.387Z,10.02
2022-11-14T08:31:40.614Z,12.60
2022-11-14T08:34:26.799Z,12.85
2022-11-14T08:37:12.883Z,11.10
2022-11-14T08:39:59.477Z,15.98
2022-11-14T08:42:46.168Z,17.95
2022-11-14T08:45:32.313Z,10.80
2022-11-14T08:48:18.956Z,13.47
2022-11-14T08:51:07.071Z,14.35
2022-11-14T08:53:53.289Z,13.82
2022-11-14T08:56:39.686Z,11.85
2022-11-14T08:59:25.793Z,14.90
2022-11-14T09:02:13.791Z,14.70
2022-11-14T09:05:00.428Z,17.33
2022-11-14T09:07:46.921Z,13.70
2022-11-14T09:13:22.086Z,16.45
